Varoey — LK9705 — position and weather

sailwx.info

Track history (hours):
 
Tides and Currents Weather Stations Pressure Air Temp Water Temp Dewpoint Dewpoint Depression Visibility Wind Speed Wind Dir Waves Ship Positions

Varoey

Last reported at 2017-Nov-16 09:05 UTC. Time now 2017-Dec-12 08:37 UTC.
Position N 69°56' E 021°05'.
Warning: this ship's position is 25 days out of date.

Length 12 m.

Type: Fishing. MMSI: 257208940.

Date/timePositionNaut miles runAvg speedWind from/ knotsBaromVisibWave heightAir tempDewpointWater temp
2017-Nov-16 09:05N 69°56' E 021°05'1 7.1
2017-Nov-16 09:00N 69°56' E 021°06'0 0.4
2017-Nov-16 08:30N 69°56' E 021°06'2 4.2
2017-Nov-16 08:00N 69°58' E 021°05'0 0.6
2017-Nov-16 07:29N 69°58' E 021°05'1 1.3
2017-Nov-16 06:58N 69°58' E 021°03'4 9.5
2017-Nov-16 06:30N 69°55' E 020°52'5 9.0
2017-Nov-16 06:00N 69°56' E 020°39'5 9.3
2017-Nov-16 05:30N 69°58' E 020°27'5 9.4
2017-Nov-16 05:00N 70°01' E 020°16'5 9.3
2017-Nov-16 04:30N 70°04' E 020°05'2 3.9
2017-Nov-16 04:00N 70°04' E 019°60'0 0.0
2017-Nov-16 03:30N 70°04' E 019°60'0 0.0
2017-Nov-16 03:00N 70°04' E 019°60'0 0.0
2017-Nov-16 02:30N 70°04' E 019°60'0 0.0
2017-Nov-16 02:00N 70°04' E 019°60'0 0.0
2017-Nov-16 01:30N 70°04' E 019°60'0 0.0
2017-Nov-16 01:00N 70°04' E 019°60'0 0.0
2017-Nov-16 00:30N 70°04' E 019°60'0 0.0
2017-Nov-16 00:00N 70°04' E 019°60'0 0.0
2017-Nov-15 23:30N 70°04' E 019°60'0 0.0
2017-Nov-15 23:00N 70°04' E 019°60'0 0.0
2017-Nov-15 22:30N 70°04' E 019°60'0 0.0
2017-Nov-15 22:00N 70°04' E 019°60'0 0.0
2017-Nov-15 21:30N 70°04' E 019°60'0 0.0
2017-Nov-15 21:00N 70°04' E 019°60'0 0.0
2017-Nov-15 20:30N 70°04' E 019°60'0 0.0
2017-Nov-15 20:00N 70°04' E 019°60'0 0.0
2017-Nov-15 19:30N 70°04' E 019°60'0 0.0
2017-Nov-15 19:00N 70°04' E 019°60'0 0.0
2017-Nov-15 18:27N 70°04' E 019°60'0 0.0
2017-Nov-15 18:00N 70°04' E 019°60'0 0.0
2017-Nov-15 17:30N 70°04' E 019°60'0 0.0
2017-Nov-15 17:00N 70°04' E 019°60'0 0.0
2017-Nov-15 16:30N 70°04' E 019°60'0 0.0
2017-Nov-15 16:00N 70°04' E 019°60'0 0.0
2017-Nov-15 15:30N 70°04' E 019°60'0 0.6
2017-Nov-15 14:59N 70°05' E 020°00'5 9.5
2017-Nov-15 14:29N 70°02' E 020°12'5 9.7
2017-Nov-15 14:00N 69°60' E 020°24'5 9.6
2017-Nov-15 13:30N 69°57' E 020°35'5 9.3
2017-Nov-15 12:59N 69°55' E 020°48'4 8.9
2017-Nov-15 12:30N 69°57' E 021°00'2 3.5
2017-Nov-15 11:58N 69°57' E 021°05'0 0.4
2017-Nov-15 11:27N 69°57' E 021°05'0 0.4
2017-Nov-15 11:00N 69°57' E 021°06'1 1.1
2017-Nov-15 10:28N 69°57' E 021°05'0 0.4
2017-Nov-15 10:00N 69°57' E 021°06'1 1.7
2017-Nov-15 09:26N 69°58' E 021°05'0 0.6
2017-Nov-15 08:59N 69°58' E 021°05'0 0.3
2017-Nov-15 08:26N 69°58' E 021°05'2 4.9
2017-Nov-15 07:56N 70°00' E 021°04'2 0.1
2017-Nov-14 11:44N 70°02' E 020°58'2 6.6
2017-Nov-14 11:30N 70°01' E 021°03'3 6.2
2017-Nov-14 10:59N 69°59' E 021°06'2 3.8
2017-Nov-14 10:30N 69°57' E 021°05'0 0.4
2017-Nov-14 09:57N 69°57' E 021°05'1 1.3
2017-Nov-14 09:30N 69°57' E 021°07'1 1.6
2017-Nov-14 08:59N 69°57' E 021°06'0 0.4
2017-Nov-14 08:29N 69°57' E 021°06'0 0.2
2017-Nov-14 07:59N 69°57' E 021°05'0 0.8
2017-Nov-14 07:29N 69°58' E 021°06'0 0.4
2017-Nov-14 07:00N 69°58' E 021°05'0 0.7
2017-Nov-14 06:29N 69°58' E 021°06'0 0.2
2017-Nov-14 05:45N 69°58' E 021°05'1 4.5
2017-Nov-14 05:29N 69°59' E 021°05'3 0.1
2017-Nov-12 22:40N 70°02' E 020°58'1 7.6
2017-Nov-12 22:30N 70°02' E 021°02'4 8.3
2017-Nov-12 22:00N 70°07' E 020°59'3 6.4
2017-Nov-12 21:30N 70°09' E 020°54'1 1.1
2017-Nov-12 20:57N 70°10' E 020°54'1 1.9
2017-Nov-12 20:30N 70°10' E 020°57'1 0.9
2017-Nov-12 19:57N 70°09' E 020°57'3 6.9
2017-Nov-12 19:29N 70°09' E 020°48'4 8.7
2017-Nov-12 19:00N 70°05' E 020°48'4 7.3
2017-Nov-12 18:30N 70°02' E 020°41'4 8.8
2017-Nov-12 18:00N 70°02' E 020°28'4 8.6
2017-Nov-12 17:30N 70°04' E 020°17'4 8.8
2017-Nov-12 17:01N 70°07' E 020°08'3 4.9
2017-Nov-12 16:30N 70°08' E 020°01'4 7.4
2017-Nov-12 16:00N 70°11' E 019°56'4 8.3
2017-Nov-12 15:30N 70°15' E 019°50'4 8.3
2017-Nov-12 15:00N 70°17' E 019°40'4 7.9
2017-Nov-12 14:29N 70°15' E 019°29'1 1.8
2017-Nov-12 13:59N 70°15' E 019°30'0 0.0
2017-Nov-12 13:29N 70°15' E 019°30'0 0.0
2017-Nov-12 12:59N 70°15' E 019°30'0 0.0
2017-Nov-12 12:29N 70°14' E 019°30'0 0.0
2017-Nov-12 11:59N 70°14' E 019°30'0 0.0
2017-Nov-12 11:29N 70°15' E 019°30'0 0.0
2017-Nov-12 10:59N 70°14' E 019°30'0 0.0
2017-Nov-12 10:29N 70°14' E 019°30'0 0.0
2017-Nov-12 09:59N 70°14' E 019°30'0 0.0
2017-Nov-12 09:29N 70°14' E 019°30'0 0.0
2017-Nov-12 08:59N 70°14' E 019°30'0 0.0
2017-Nov-12 08:29N 70°14' E 019°30'0 0.0
2017-Nov-12 07:59N 70°15' E 019°30'0 0.0
2017-Nov-12 07:29N 70°15' E 019°30'0 0.0
2017-Nov-12 06:59N 70°14' E 019°30'0 0.0
2017-Nov-12 06:29N 70°14' E 019°30'0 0.0
2017-Nov-12 05:59N 70°14' E 019°30'0 0.0
2017-Nov-12 05:29N 70°14' E 019°30'0 0.0
2017-Nov-12 04:59N 70°14' E 019°30'0 0.0
2017-Nov-12 04:29N 70°15' E 019°30'0 0.0
2017-Nov-12 03:59N 70°14' E 019°30'0 0.0
2017-Nov-12 03:29N 70°14' E 019°30'0 0.0
2017-Nov-12 02:59N 70°14' E 019°30'0 0.0
2017-Nov-12 02:29N 70°15' E 019°30'0 0.0
2017-Nov-12 01:59N 70°14' E 019°30'0 0.0
2017-Nov-12 01:29N 70°14' E 019°30'0 0.0
2017-Nov-12 00:59N 70°14' E 019°30'0 0.0
2017-Nov-12 00:29N 70°14' E 019°30'0 0.0
2017-Nov-11 23:59N 70°14' E 019°30'0 0.0
2017-Nov-11 23:29N 70°14' E 019°30'0 0.0
2017-Nov-11 22:59N 70°15' E 019°30'0 0.0
2017-Nov-11 22:29N 70°14' E 019°30'0 0.0
2017-Nov-11 21:59N 70°14' E 019°30'0 0.0
2017-Nov-11 21:29N 70°14' E 019°30'0 0.0
2017-Nov-11 20:59N 70°14' E 019°30'0 0.0
2017-Nov-11 20:29N 70°14' E 019°30'0 0.0
2017-Nov-11 19:59N 70°14' E 019°30'0 0.0
2017-Nov-11 19:29N 70°14' E 019°30'0 0.0
2017-Nov-11 18:59N 70°14' E 019°30'0 0.0
2017-Nov-11 18:29N 70°14' E 019°30'0 0.0
2017-Nov-11 17:59N 70°14' E 019°30'0 0.0
2017-Nov-11 17:29N 70°14' E 019°30'0 0.0
2017-Nov-11 16:59N 70°14' E 019°30'0 0.0
2017-Nov-11 16:29N 70°14' E 019°30'0 0.0
2017-Nov-11 15:59N 70°14' E 019°30'0 0.0
2017-Nov-11 15:29N 70°14' E 019°30'0 0.0
2017-Nov-11 14:59N 70°14' E 019°30'0 0.0
2017-Nov-11 14:29N 70°14' E 019°30'0 0.0
2017-Nov-11 13:59N 70°15' E 019°30'0 0.0
2017-Nov-11 13:29N 70°15' E 019°30'0 0.0
2017-Nov-11 12:59N 70°14' E 019°30'0 0.0
2017-Nov-11 12:29N 70°14' E 019°30'0 0.0
2017-Nov-11 11:59N 70°14' E 019°30'0 0.0
2017-Nov-11 11:29N 70°14' E 019°30'0 0.0
2017-Nov-11 10:59N 70°14' E 019°30'0 0.0
2017-Nov-11 10:29N 70°14' E 019°30'0 0.0
2017-Nov-11 09:59N 70°14' E 019°30'0 0.0
2017-Nov-11 09:29N 70°14' E 019°30'0 0.0
2017-Nov-11 08:59N 70°14' E 019°30'0 0.0
2017-Nov-11 08:29N 70°14' E 019°30'0 0.0
2017-Nov-11 07:59N 70°14' E 019°30'0 0.0
2017-Nov-11 07:29N 70°15' E 019°30'0 0.0
2017-Nov-11 06:59N 70°14' E 019°30'0 0.0
2017-Nov-11 06:29N 70°14' E 019°30'0 0.0
2017-Nov-11 05:59N 70°14' E 019°30'0 0.0
2017-Nov-11 05:29N 70°14' E 019°30'0 0.0
2017-Nov-11 04:59N 70°14' E 019°30'0 0.0
2017-Nov-11 04:29N 70°15' E 019°30'0 0.0
2017-Nov-11 03:59N 70°14' E 019°30'0 0.0
2017-Nov-11 03:29N 70°14' E 019°30'0 0.0
2017-Nov-11 02:59N 70°14' E 019°30'0 0.0
2017-Nov-11 02:29N 70°14' E 019°30'0 0.0
2017-Nov-11 01:59N 70°14' E 019°30'0 0.0
2017-Nov-11 01:29N 70°14' E 019°30'0 0.0
2017-Nov-11 00:59N 70°14' E 019°30'0 0.0
2017-Nov-11 00:29N 70°14' E 019°30'0 0.0
2017-Nov-10 23:59N 70°14' E 019°30'0 0.0
2017-Nov-10 23:29N 70°14' E 019°30'0 0.0
2017-Nov-10 22:59N 70°15' E 019°30'0 0.0
2017-Nov-10 22:29N 70°14' E 019°30'0 0.0
2017-Nov-10 21:59N 70°14' E 019°30'0 0.0
2017-Nov-10 21:29N 70°14' E 019°30'0 0.0
2017-Nov-10 20:59N 70°14' E 019°30'0 0.0
2017-Nov-10 20:29N 70°14' E 019°30'0 0.0
2017-Nov-10 19:59N 70°14' E 019°30'0 0.0
2017-Nov-10 19:29N 70°14' E 019°30'0 0.0
2017-Nov-10 18:59N 70°14' E 019°30'0 0.0
2017-Nov-10 18:29N 70°14' E 019°30'0 0.0
2017-Nov-10 17:59N 70°14' E 019°30'0 0.0
2017-Nov-10 17:29N 70°14' E 019°30'0 0.0
2017-Nov-10 16:59N 70°15' E 019°30'0 0.0
2017-Nov-10 16:29N 70°14' E 019°30'0 0.0
2017-Nov-10 15:59N 70°14' E 019°30'0 0.0
2017-Nov-10 15:29N 70°14' E 019°30'0 0.0
2017-Nov-10 14:59N 70°14' E 019°30'0 0.0
2017-Nov-10 14:28N 70°14' E 019°30'0 0.0
2017-Nov-10 13:58N 70°15' E 019°30'0 0.0
2017-Nov-10 13:28N 70°14' E 019°30'0 0.0
2017-Nov-10 12:58N 70°14' E 019°30'0 0.0
2017-Nov-10 12:28N 70°14' E 019°30'0 0.0
2017-Nov-10 11:58N 70°14' E 019°30'0 0.0
2017-Nov-10 11:28N 70°14' E 019°30'0 0.1
2017-Nov-10 10:58N 70°15' E 019°30'0 0.0
2017-Nov-10 10:28N 70°15' E 019°30'0 0.1
2017-Nov-10 09:59N 70°14' E 019°30'0 0.0
2017-Nov-10 09:29N 70°14' E 019°30'0 0.0
2017-Nov-10 08:59N 70°14' E 019°30'0 0.0
2017-Nov-10 08:29N 70°14' E 019°30'0 0.0
2017-Nov-10 07:59N 70°15' E 019°30'0 0.0
2017-Nov-10 07:29N 70°15' E 019°30'0 0.0
2017-Nov-10 06:59N 70°14' E 019°30'0 0.0
2017-Nov-10 06:29N 70°14' E 019°30'0 0.0
2017-Nov-10 05:59N 70°14' E 019°30'0 0.0
2017-Nov-10 05:29N 70°14' E 019°30'0 0.0
2017-Nov-10 04:59N 70°14' E 019°30'0 0.0
2017-Nov-10 04:29N 70°14' E 019°30'0 0.0
2017-Nov-10 03:59N 70°14' E 019°30'0 0.0
2017-Nov-10 03:29N 70°14' E 019°30'0 0.0
2017-Nov-10 02:59N 70°14' E 019°30'0 0.0
2017-Nov-10 02:29N 70°14' E 019°30'0 0.0
2017-Nov-10 01:59N 70°14' E 019°30'0 0.0
2017-Nov-10 01:29N 70°14' E 019°30'0 0.0
2017-Nov-10 00:59N 70°14' E 019°30'0 0.0
2017-Nov-10 00:29N 70°14' E 019°30'0 0.0
2017-Nov-09 23:59N 70°14' E 019°30'0 0.0
2017-Nov-09 23:29N 70°14' E 019°30'0 0.0
2017-Nov-09 22:59N 70°15' E 019°30'0 0.0
2017-Nov-09 22:29N 70°14' E 019°30'0 0.0
2017-Nov-09 21:59N 70°14' E 019°30'0 0.0
2017-Nov-09 21:29N 70°14' E 019°30'0 0.0
2017-Nov-09 20:59N 70°14' E 019°30'0 0.0
2017-Nov-09 20:29N 70°14' E 019°30'0 0.0
2017-Nov-09 19:59N 70°14' E 019°30'0 0.0
2017-Nov-09 19:29N 70°14' E 019°30'0 0.0
2017-Nov-09 18:59N 70°14' E 019°30'0 0.0
2017-Nov-09 18:29N 70°14' E 019°30'0 0.0
2017-Nov-09 17:59N 70°14' E 019°30'0 0.0
2017-Nov-09 17:29N 70°14' E 019°30'0 0.0
2017-Nov-09 16:59N 70°15' E 019°30'0 0.0
2017-Nov-09 16:29N 70°14' E 019°30'0 0.0
2017-Nov-09 15:59N 70°14' E 019°30'0 0.0
2017-Nov-09 15:29N 70°14' E 019°30'0 0.0
2017-Nov-09 14:59N 70°14' E 019°30'0 0.0
2017-Nov-09 14:29N 70°14' E 019°30'0 0.0
2017-Nov-09 13:59N 70°15' E 019°30'0 0.0
2017-Nov-09 13:29N 70°14' E 019°30'0 0.0
2017-Nov-09 12:59N 70°14' E 019°30'0 0.0
2017-Nov-09 12:29N 70°14' E 019°30'0 0.0
2017-Nov-09 11:59N 70°14' E 019°30'0 0.0
2017-Nov-09 11:29N 70°14' E 019°30'0 0.0
2017-Nov-09 10:59N 70°14' E 019°30'0 0.0
2017-Nov-09 10:29N 70°15' E 019°30'0 0.0
2017-Nov-09 09:59N 70°14' E 019°30'0 0.0
2017-Nov-09 09:29N 70°14' E 019°30'0 0.0
2017-Nov-09 08:59N 70°14' E 019°30'0 0.0
2017-Nov-09 08:29N 70°14' E 019°30'0 0.0
2017-Nov-09 07:59N 70°14' E 019°30'0 0.0
2017-Nov-09 07:29N 70°14' E 019°30'0 0.0
2017-Nov-09 06:59N 70°14' E 019°30'0 0.0
2017-Nov-09 06:26N 70°14' E 019°30'0 0.0
2017-Nov-09 05:59N 70°14' E 019°30'0 0.0
2017-Nov-09 05:29N 70°14' E 019°30'0 0.0
2017-Nov-09 04:59N 70°14' E 019°30'0 0.0
2017-Nov-09 04:29N 70°14' E 019°30'0 0.0
2017-Nov-09 03:59N 70°14' E 019°30'0 0.0
2017-Nov-09 03:29N 70°15' E 019°30'0 0.0
2017-Nov-09 02:59N 70°14' E 019°30'0 0.0
2017-Nov-09 02:29N 70°15' E 019°30'0 0.0
2017-Nov-09 01:59N 70°14' E 019°30'0 0.0
2017-Nov-09 01:29N 70°14' E 019°30'0 0.0
2017-Nov-08 23:50N 70°15' E 019°30'0 0.0
2017-Nov-08 23:29N 70°14' E 019°30'0 0.0
2017-Nov-08 22:59N 70°15' E 019°30'0 0.0
2017-Nov-08 22:29N 70°14' E 019°30'0 0.0
2017-Nov-08 21:59N 70°14' E 019°30'0 0.0
2017-Nov-08 21:29N 70°14' E 019°30'0 0.0
2017-Nov-08 20:59N 70°14' E 019°30'0 0.0
2017-Nov-08 20:29N 70°14' E 019°30'0 0.0
2017-Nov-08 19:59N 70°14' E 019°30'0 0.0
2017-Nov-08 19:29N 70°14' E 019°30'0 0.0
2017-Nov-08 18:59N 70°14' E 019°30'0 0.0
2017-Nov-08 18:29N 70°14' E 019°30'0 0.0
2017-Nov-08 17:59N 70°14' E 019°30'0 0.0
2017-Nov-08 17:29N 70°14' E 019°30'0 0.0
2017-Nov-08 16:59N 70°15' E 019°30'0 0.0
2017-Nov-08 16:29N 70°14' E 019°30'0 0.0
2017-Nov-08 15:59N 70°14' E 019°30'0 0.0
2017-Nov-08 15:27N 70°14' E 019°30'0 0.0
2017-Nov-08 15:00N 70°14' E 019°30'0 0.0
2017-Nov-08 14:30N 70°14' E 019°30'0 0.0
2017-Nov-08 14:00N 70°15' E 019°30'0 0.0
2017-Nov-08 13:30N 70°14' E 019°30'0 0.0
2017-Nov-08 13:00N 70°14' E 019°30'0 0.0
2017-Nov-08 12:30N 70°14' E 019°30'0 0.0
2017-Nov-08 12:00N 70°14' E 019°30'0 0.0
2017-Nov-08 11:30N 70°14' E 019°30'0 0.0
2017-Nov-08 11:00N 70°14' E 019°30'0 0.0
2017-Nov-08 10:29N 70°14' E 019°30'0 0.0
2017-Nov-08 09:59N 70°14' E 019°30'0 0.0
2017-Nov-08 09:29N 70°14' E 019°30'0 0.0
2017-Nov-08 08:59N 70°14' E 019°30'0 0.0
2017-Nov-08 08:29N 70°15' E 019°30'0 0.0
2017-Nov-08 07:59N 70°15' E 019°30'0 0.0
2017-Nov-08 07:29N 70°14' E 019°30'0 0.0
2017-Nov-08 06:59N 70°15' E 019°30'0 0.0
2017-Nov-08 06:29N 70°14' E 019°30'0 0.0
2017-Nov-08 05:59N 70°14' E 019°30'0 0.0
2017-Nov-08 05:29N 70°15' E 019°30'0 0.0
2017-Nov-08 04:59N 70°15' E 019°30'0 0.0
2017-Nov-08 04:29N 70°15' E 019°30'0 0.0
2017-Nov-08 03:59N 70°14' E 019°30'0 0.0
2017-Nov-08 03:29N 70°15' E 019°30'0 0.0
2017-Nov-08 02:59N 70°15' E 019°30'0 0.0
2017-Nov-08 02:29N 70°15' E 019°30'0 0.0
2017-Nov-08 01:59N 70°14' E 019°30'0 0.0
2017-Nov-08 01:29N 70°14' E 019°30'0 0.0
2017-Nov-08 00:59N 70°14' E 019°30'0 0.0
2017-Nov-08 00:29N 70°14' E 019°30'0 0.0
2017-Nov-07 23:59N 70°15' E 019°30'0 0.0
2017-Nov-07 23:29N 70°15' E 019°30'0 0.0
2017-Nov-07 22:59N 70°15' E 019°30'0 0.0
2017-Nov-07 22:29N 70°15' E 019°30'0 0.0
2017-Nov-07 21:59N 70°14' E 019°30'0 0.0
2017-Nov-07 21:29N 70°14' E 019°30'0 0.0
2017-Nov-07 20:59N 70°14' E 019°30'0 0.0
2017-Nov-07 20:29N 70°14' E 019°30'0 0.0
2017-Nov-07 19:59N 70°14' E 019°30'0 0.0
2017-Nov-07 19:29N 70°14' E 019°30'0 0.0
2017-Nov-07 18:59N 70°14' E 019°30'0 0.0
2017-Nov-07 18:29N 70°14' E 019°30'0 0.0
2017-Nov-07 17:59N 70°14' E 019°30'0 0.0
2017-Nov-07 17:29N 70°14' E 019°30'0 0.0
2017-Nov-07 16:59N 70°14' E 019°30'0 0.0
2017-Nov-07 16:29N 70°14' E 019°30'0 0.0
2017-Nov-07 15:59N 70°14' E 019°30'0 0.0
2017-Nov-07 15:29N 70°14' E 019°30'0 0.0
2017-Nov-07 14:59N 70°14' E 019°30'0 0.0
2017-Nov-07 14:29N 70°14' E 019°30'0 0.0
2017-Nov-07 13:59N 70°14' E 019°30'0 0.0
2017-Nov-07 13:29N 70°14' E 019°30'0 0.0
2017-Nov-07 12:59N 70°14' E 019°30'0 0.0
2017-Nov-07 12:29N 70°14' E 019°30'0 0.0
2017-Nov-07 11:59N 70°14' E 019°30'0 0.0
2017-Nov-07 11:29N 70°14' E 019°30'0 0.0
2017-Nov-07 10:59N 70°14' E 019°30'0 0.0
2017-Nov-07 10:29N 70°14' E 019°30'0 0.0
2017-Nov-07 09:59N 70°14' E 019°30'0 0.0
2017-Nov-07 09:29N 70°14' E 019°30'0 0.0
2017-Nov-07 08:59N 70°14' E 019°30'0 0.0
2017-Nov-07 08:29N 70°14' E 019°30'0 0.0
2017-Nov-07 07:59N 70°14' E 019°30'0 0.0
2017-Nov-07 07:29N 70°14' E 019°30'0 0.0
2017-Nov-07 06:59N 70°14' E 019°30'0 0.0
2017-Nov-07 06:29N 70°14' E 019°30'0 0.0
2017-Nov-07 05:59N 70°14' E 019°30'0 0.0
2017-Nov-07 05:29N 70°14' E 019°30'0 0.0
2017-Nov-07 04:59N 70°14' E 019°30'0 0.0
2017-Nov-07 04:29N 70°14' E 019°30'0 0.0
2017-Nov-07 03:59N 70°14' E 019°30'0 0.0
2017-Nov-07 03:29N 70°14' E 019°30'0 0.0
2017-Nov-07 02:59N 70°14' E 019°30'0 0.0
2017-Nov-07 02:29N 70°14' E 019°30'0 0.0
2017-Nov-07 01:59N 70°14' E 019°30'0 0.0
2017-Nov-07 01:29N 70°14' E 019°30'0 0.0
2017-Nov-07 00:59N 70°14' E 019°30'0 0.0
2017-Nov-07 00:29N 70°14' E 019°30'0 0.0
2017-Nov-06 23:59N 70°14' E 019°30'0 0.0
2017-Nov-06 23:29N 70°14' E 019°30'0 0.0
2017-Nov-06 22:59N 70°14' E 019°30'0 0.0
2017-Nov-06 22:29N 70°14' E 019°30'0 0.0
2017-Nov-06 21:59N 70°14' E 019°30'0 0.0
2017-Nov-06 21:29N 70°14' E 019°30'0 0.0
2017-Nov-06 20:59N 70°14' E 019°30'0 0.0
2017-Nov-06 20:29N 70°14' E 019°30'  
Track history (hours):
 
Tides and Currents Weather Stations Pressure Air Temp Water Temp Dewpoint Dewpoint Depression Visibility Wind Speed Wind Dir Waves Ship Positions

Varoey

Last reported at 2017-Nov-16 09:05 UTC. Time now 2017-Dec-12 08:37 UTC.
Position N 69°56' E 021°05'.
Warning: this ship's position is 25 days out of date.

Length 12 m.

Type: Fishing. MMSI: 257208940.

Date/timePositionNaut miles runAvg speedWind from/ knotsBaromVisibWave heightAir tempDewpointWater temp
2017-Nov-16 09:05N 69°56' E 021°05'1 7.1
2017-Nov-16 09:00N 69°56' E 021°06'0 0.4
2017-Nov-16 08:30N 69°56' E 021°06'2 4.2
2017-Nov-16 08:00N 69°58' E 021°05'0 0.6
2017-Nov-16 07:29N 69°58' E 021°05'1 1.3
2017-Nov-16 06:58N 69°58' E 021°03'4 9.5
2017-Nov-16 06:30N 69°55' E 020°52'5 9.0
2017-Nov-16 06:00N 69°56' E 020°39'5 9.3
2017-Nov-16 05:30N 69°58' E 020°27'5 9.4
2017-Nov-16 05:00N 70°01' E 020°16'5 9.3
2017-Nov-16 04:30N 70°04' E 020°05'2 3.9
2017-Nov-16 04:00N 70°04' E 019°60'0 0.0
2017-Nov-16 03:30N 70°04' E 019°60'0 0.0
2017-Nov-16 03:00N 70°04' E 019°60'0 0.0
2017-Nov-16 02:30N 70°04' E 019°60'0 0.0
2017-Nov-16 02:00N 70°04' E 019°60'0 0.0
2017-Nov-16 01:30N 70°04' E 019°60'0 0.0
2017-Nov-16 01:00N 70°04' E 019°60'0 0.0
2017-Nov-16 00:30N 70°04' E 019°60'0 0.0
2017-Nov-16 00:00N 70°04' E 019°60'0 0.0
2017-Nov-15 23:30N 70°04' E 019°60'0 0.0
2017-Nov-15 23:00N 70°04' E 019°60'0 0.0
2017-Nov-15 22:30N 70°04' E 019°60'0 0.0
2017-Nov-15 22:00N 70°04' E 019°60'0 0.0
2017-Nov-15 21:30N 70°04' E 019°60'0 0.0
2017-Nov-15 21:00N 70°04' E 019°60'0 0.0
2017-Nov-15 20:30N 70°04' E 019°60'0 0.0
2017-Nov-15 20:00N 70°04' E 019°60'0 0.0
2017-Nov-15 19:30N 70°04' E 019°60'0 0.0
2017-Nov-15 19:00N 70°04' E 019°60'0 0.0
2017-Nov-15 18:27N 70°04' E 019°60'0 0.0
2017-Nov-15 18:00N 70°04' E 019°60'0 0.0
2017-Nov-15 17:30N 70°04' E 019°60'0 0.0
2017-Nov-15 17:00N 70°04' E 019°60'0 0.0
2017-Nov-15 16:30N 70°04' E 019°60'0 0.0
2017-Nov-15 16:00N 70°04' E 019°60'0 0.0
2017-Nov-15 15:30N 70°04' E 019°60'0 0.6
2017-Nov-15 14:59N 70°05' E 020°00'5 9.5
2017-Nov-15 14:29N 70°02' E 020°12'5 9.7
2017-Nov-15 14:00N 69°60' E 020°24'5 9.6
2017-Nov-15 13:30N 69°57' E 020°35'5 9.3
2017-Nov-15 12:59N 69°55' E 020°48'4 8.9
2017-Nov-15 12:30N 69°57' E 021°00'2 3.5
2017-Nov-15 11:58N 69°57' E 021°05'0 0.4
2017-Nov-15 11:27N 69°57' E 021°05'0 0.4
2017-Nov-15 11:00N 69°57' E 021°06'1 1.1
2017-Nov-15 10:28N 69°57' E 021°05'0 0.4
2017-Nov-15 10:00N 69°57' E 021°06'1 1.7
2017-Nov-15 09:26N 69°58' E 021°05'0 0.6
2017-Nov-15 08:59N 69°58' E 021°05'0 0.3
2017-Nov-15 08:26N 69°58' E 021°05'2 4.9
2017-Nov-15 07:56N 70°00' E 021°04'2 0.1
2017-Nov-14 11:44N 70°02' E 020°58'2 6.6
2017-Nov-14 11:30N 70°01' E 021°03'3 6.2
2017-Nov-14 10:59N 69°59' E 021°06'2 3.8
2017-Nov-14 10:30N 69°57' E 021°05'0 0.4
2017-Nov-14 09:57N 69°57' E 021°05'1 1.3
2017-Nov-14 09:30N 69°57' E 021°07'1 1.6
2017-Nov-14 08:59N 69°57' E 021°06'0 0.4
2017-Nov-14 08:29N 69°57' E 021°06'0 0.2
2017-Nov-14 07:59N 69°57' E 021°05'0 0.8
2017-Nov-14 07:29N 69°58' E 021°06'0 0.4
2017-Nov-14 07:00N 69°58' E 021°05'0 0.7
2017-Nov-14 06:29N 69°58' E 021°06'0 0.2
2017-Nov-14 05:45N 69°58' E 021°05'1 4.5
2017-Nov-14 05:29N 69°59' E 021°05'3 0.1
2017-Nov-12 22:40N 70°02' E 020°58'1 7.6
2017-Nov-12 22:30N 70°02' E 021°02'4 8.3
2017-Nov-12 22:00N 70°07' E 020°59'3 6.4
2017-Nov-12 21:30N 70°09' E 020°54'1 1.1
2017-Nov-12 20:57N 70°10' E 020°54'1 1.9
2017-Nov-12 20:30N 70°10' E 020°57'1 0.9
2017-Nov-12 19:57N 70°09' E 020°57'3 6.9
2017-Nov-12 19:29N 70°09' E 020°48'4 8.7
2017-Nov-12 19:00N 70°05' E 020°48'4 7.3
2017-Nov-12 18:30N 70°02' E 020°41'4 8.8
2017-Nov-12 18:00N 70°02' E 020°28'4 8.6
2017-Nov-12 17:30N 70°04' E 020°17'4 8.8
2017-Nov-12 17:01N 70°07' E 020°08'3 4.9
2017-Nov-12 16:30N 70°08' E 020°01'4 7.4
2017-Nov-12 16:00N 70°11' E 019°56'4 8.3
2017-Nov-12 15:30N 70°15' E 019°50'4 8.3
2017-Nov-12 15:00N 70°17' E 019°40'4 7.9
2017-Nov-12 14:29N 70°15' E 019°29'1 1.8
2017-Nov-12 13:59N 70°15' E 019°30'0 0.0
2017-Nov-12 13:29N 70°15' E 019°30'0 0.0
2017-Nov-12 12:59N 70°15' E 019°30'0 0.0
2017-Nov-12 12:29N 70°14' E 019°30'0 0.0
2017-Nov-12 11:59N 70°14' E 019°30'0 0.0
2017-Nov-12 11:29N 70°15' E 019°30'0 0.0
2017-Nov-12 10:59N 70°14' E 019°30'0 0.0
2017-Nov-12 10:29N 70°14' E 019°30'0 0.0
2017-Nov-12 09:59N 70°14' E 019°30'0 0.0
2017-Nov-12 09:29N 70°14' E 019°30'0 0.0
2017-Nov-12 08:59N 70°14' E 019°30'0 0.0
2017-Nov-12 08:29N 70°14' E 019°30'0 0.0
2017-Nov-12 07:59N 70°15' E 019°30'0 0.0
2017-Nov-12 07:29N 70°15' E 019°30'0 0.0
2017-Nov-12 06:59N 70°14' E 019°30'0 0.0
2017-Nov-12 06:29N 70°14' E 019°30'0 0.0
2017-Nov-12 05:59N 70°14' E 019°30'0 0.0
2017-Nov-12 05:29N 70°14' E 019°30'0 0.0
2017-Nov-12 04:59N 70°14' E 019°30'0 0.0
2017-Nov-12 04:29N 70°15' E 019°30'0 0.0
2017-Nov-12 03:59N 70°14' E 019°30'0 0.0
2017-Nov-12 03:29N 70°14' E 019°30'0 0.0
2017-Nov-12 02:59N 70°14' E 019°30'0 0.0
2017-Nov-12 02:29N 70°15' E 019°30'0 0.0
2017-Nov-12 01:59N 70°14' E 019°30'0 0.0
2017-Nov-12 01:29N 70°14' E 019°30'0 0.0
2017-Nov-12 00:59N 70°14' E 019°30'0 0.0
2017-Nov-12 00:29N 70°14' E 019°30'0 0.0
2017-Nov-11 23:59N 70°14' E 019°30'0 0.0
2017-Nov-11 23:29N 70°14' E 019°30'0 0.0
2017-Nov-11 22:59N 70°15' E 019°30'0 0.0
2017-Nov-11 22:29N 70°14' E 019°30'0 0.0
2017-Nov-11 21:59N 70°14' E 019°30'0 0.0
2017-Nov-11 21:29N 70°14' E 019°30'0 0.0
2017-Nov-11 20:59N 70°14' E 019°30'0 0.0
2017-Nov-11 20:29N 70°14' E 019°30'0 0.0
2017-Nov-11 19:59N 70°14' E 019°30'0 0.0
2017-Nov-11 19:29N 70°14' E 019°30'0 0.0
2017-Nov-11 18:59N 70°14' E 019°30'0 0.0
2017-Nov-11 18:29N 70°14' E 019°30'0 0.0
2017-Nov-11 17:59N 70°14' E 019°30'0 0.0
2017-Nov-11 17:29N 70°14' E 019°30'0 0.0
2017-Nov-11 16:59N 70°14' E 019°30'0 0.0
2017-Nov-11 16:29N 70°14' E 019°30'0 0.0
2017-Nov-11 15:59N 70°14' E 019°30'0 0.0
2017-Nov-11 15:29N 70°14' E 019°30'0 0.0
2017-Nov-11 14:59N 70°14' E 019°30'0 0.0
2017-Nov-11 14:29N 70°14' E 019°30'0 0.0
2017-Nov-11 13:59N 70°15' E 019°30'0 0.0
2017-Nov-11 13:29N 70°15' E 019°30'0 0.0
2017-Nov-11 12:59N 70°14' E 019°30'0 0.0
2017-Nov-11 12:29N 70°14' E 019°30'0 0.0
2017-Nov-11 11:59N 70°14' E 019°30'0 0.0
2017-Nov-11 11:29N 70°14' E 019°30'0 0.0
2017-Nov-11 10:59N 70°14' E 019°30'0 0.0
2017-Nov-11 10:29N 70°14' E 019°30'0 0.0
2017-Nov-11 09:59N 70°14' E 019°30'0 0.0
2017-Nov-11 09:29N 70°14' E 019°30'0 0.0
2017-Nov-11 08:59N 70°14' E 019°30'0 0.0
2017-Nov-11 08:29N 70°14' E 019°30'0 0.0
2017-Nov-11 07:59N 70°14' E 019°30'0 0.0
2017-Nov-11 07:29N 70°15' E 019°30'0 0.0
2017-Nov-11 06:59N 70°14' E 019°30'0 0.0
2017-Nov-11 06:29N 70°14' E 019°30'0 0.0
2017-Nov-11 05:59N 70°14' E 019°30'0 0.0
2017-Nov-11 05:29N 70°14' E 019°30'0 0.0
2017-Nov-11 04:59N 70°14' E 019°30'0 0.0
2017-Nov-11 04:29N 70°15' E 019°30'0 0.0
2017-Nov-11 03:59N 70°14' E 019°30'0 0.0
2017-Nov-11 03:29N 70°14' E 019°30'0 0.0
2017-Nov-11 02:59N 70°14' E 019°30'0 0.0
2017-Nov-11 02:29N 70°14' E 019°30'0 0.0
2017-Nov-11 01:59N 70°14' E 019°30'0 0.0
2017-Nov-11 01:29N 70°14' E 019°30'0 0.0
2017-Nov-11 00:59N 70°14' E 019°30'0 0.0
2017-Nov-11 00:29N 70°14' E 019°30'0 0.0
2017-Nov-10 23:59N 70°14' E 019°30'0 0.0
2017-Nov-10 23:29N 70°14' E 019°30'0 0.0
2017-Nov-10 22:59N 70°15' E 019°30'0 0.0
2017-Nov-10 22:29N 70°14' E 019°30'0 0.0
2017-Nov-10 21:59N 70°14' E 019°30'0 0.0
2017-Nov-10 21:29N 70°14' E 019°30'0 0.0
2017-Nov-10 20:59N 70°14' E 019°30'0 0.0
2017-Nov-10 20:29N 70°14' E 019°30'0 0.0
2017-Nov-10 19:59N 70°14' E 019°30'0 0.0
2017-Nov-10 19:29N 70°14' E 019°30'0 0.0
2017-Nov-10 18:59N 70°14' E 019°30'0 0.0
2017-Nov-10 18:29N 70°14' E 019°30'0 0.0
2017-Nov-10 17:59N 70°14' E 019°30'0 0.0
2017-Nov-10 17:29N 70°14' E 019°30'0 0.0
2017-Nov-10 16:59N 70°15' E 019°30'0 0.0
2017-Nov-10 16:29N 70°14' E 019°30'0 0.0
2017-Nov-10 15:59N 70°14' E 019°30'0 0.0
2017-Nov-10 15:29N 70°14' E 019°30'0 0.0
2017-Nov-10 14:59N 70°14' E 019°30'0 0.0
2017-Nov-10 14:28N 70°14' E 019°30'0 0.0
2017-Nov-10 13:58N 70°15' E 019°30'0 0.0
2017-Nov-10 13:28N 70°14' E 019°30'0 0.0
2017-Nov-10 12:58N 70°14' E 019°30'0 0.0
2017-Nov-10 12:28N 70°14' E 019°30'0 0.0
2017-Nov-10 11:58N 70°14' E 019°30'0 0.0
2017-Nov-10 11:28N 70°14' E 019°30'0 0.1
2017-Nov-10 10:58N 70°15' E 019°30'0 0.0
2017-Nov-10 10:28N 70°15' E 019°30'0 0.1
2017-Nov-10 09:59N 70°14' E 019°30'0 0.0
2017-Nov-10 09:29N 70°14' E 019°30'0 0.0
2017-Nov-10 08:59N 70°14' E 019°30'0 0.0
2017-Nov-10 08:29N 70°14' E 019°30'0 0.0
2017-Nov-10 07:59N 70°15' E 019°30'0 0.0
2017-Nov-10 07:29N 70°15' E 019°30'0 0.0
2017-Nov-10 06:59N 70°14' E 019°30'0 0.0
2017-Nov-10 06:29N 70°14' E 019°30'0 0.0
2017-Nov-10 05:59N 70°14' E 019°30'0 0.0
2017-Nov-10 05:29N 70°14' E 019°30'0 0.0
2017-Nov-10 04:59N 70°14' E 019°30'0 0.0
2017-Nov-10 04:29N 70°14' E 019°30'0 0.0
2017-Nov-10 03:59N 70°14' E 019°30'0 0.0
2017-Nov-10 03:29N 70°14' E 019°30'0 0.0
2017-Nov-10 02:59N 70°14' E 019°30'0 0.0
2017-Nov-10 02:29N 70°14' E 019°30'0 0.0
2017-Nov-10 01:59N 70°14' E 019°30'0 0.0
2017-Nov-10 01:29N 70°14' E 019°30'0 0.0
2017-Nov-10 00:59N 70°14' E 019°30'0 0.0
2017-Nov-10 00:29N 70°14' E 019°30'0 0.0
2017-Nov-09 23:59N 70°14' E 019°30'0 0.0
2017-Nov-09 23:29N 70°14' E 019°30'0 0.0
2017-Nov-09 22:59N 70°15' E 019°30'0 0.0
2017-Nov-09 22:29N 70°14' E 019°30'0 0.0
2017-Nov-09 21:59N 70°14' E 019°30'0 0.0
2017-Nov-09 21:29N 70°14' E 019°30'0 0.0
2017-Nov-09 20:59N 70°14' E 019°30'0 0.0
2017-Nov-09 20:29N 70°14' E 019°30'0 0.0
2017-Nov-09 19:59N 70°14' E 019°30'0 0.0
2017-Nov-09 19:29N 70°14' E 019°30'0 0.0
2017-Nov-09 18:59N 70°14' E 019°30'0 0.0
2017-Nov-09 18:29N 70°14' E 019°30'0 0.0
2017-Nov-09 17:59N 70°14' E 019°30'0 0.0
2017-Nov-09 17:29N 70°14' E 019°30'0 0.0
2017-Nov-09 16:59N 70°15' E 019°30'0 0.0
2017-Nov-09 16:29N 70°14' E 019°30'0 0.0
2017-Nov-09 15:59N 70°14' E 019°30'0 0.0
2017-Nov-09 15:29N 70°14' E 019°30'0 0.0
2017-Nov-09 14:59N 70°14' E 019°30'0 0.0
2017-Nov-09 14:29N 70°14' E 019°30'0 0.0
2017-Nov-09 13:59N 70°15' E 019°30'0 0.0
2017-Nov-09 13:29N 70°14' E 019°30'0 0.0
2017-Nov-09 12:59N 70°14' E 019°30'0 0.0
2017-Nov-09 12:29N 70°14' E 019°30'0 0.0
2017-Nov-09 11:59N 70°14' E 019°30'0 0.0
2017-Nov-09 11:29N 70°14' E 019°30'0 0.0
2017-Nov-09 10:59N 70°14' E 019°30'0 0.0
2017-Nov-09 10:29N 70°15' E 019°30'0 0.0
2017-Nov-09 09:59N 70°14' E 019°30'0 0.0
2017-Nov-09 09:29N 70°14' E 019°30'0 0.0
2017-Nov-09 08:59N 70°14' E 019°30'0 0.0
2017-Nov-09 08:29N 70°14' E 019°30'0 0.0
2017-Nov-09 07:59N 70°14' E 019°30'0 0.0
2017-Nov-09 07:29N 70°14' E 019°30'0 0.0
2017-Nov-09 06:59N 70°14' E 019°30'0 0.0
2017-Nov-09 06:26N 70°14' E 019°30'0 0.0
2017-Nov-09 05:59N 70°14' E 019°30'0 0.0
2017-Nov-09 05:29N 70°14' E 019°30'0 0.0
2017-Nov-09 04:59N 70°14' E 019°30'0 0.0
2017-Nov-09 04:29N 70°14' E 019°30'0 0.0
2017-Nov-09 03:59N 70°14' E 019°30'0 0.0
2017-Nov-09 03:29N 70°15' E 019°30'0 0.0
2017-Nov-09 02:59N 70°14' E 019°30'0 0.0
2017-Nov-09 02:29N 70°15' E 019°30'0 0.0
2017-Nov-09 01:59N 70°14' E 019°30'0 0.0
2017-Nov-09 01:29N 70°14' E 019°30'0 0.0
2017-Nov-08 23:50N 70°15' E 019°30'0 0.0
2017-Nov-08 23:29N 70°14' E 019°30'0 0.0
2017-Nov-08 22:59N 70°15' E 019°30'0 0.0
2017-Nov-08 22:29N 70°14' E 019°30'0 0.0
2017-Nov-08 21:59N 70°14' E 019°30'0 0.0
2017-Nov-08 21:29N 70°14' E 019°30'0 0.0
2017-Nov-08 20:59N 70°14' E 019°30'0 0.0
2017-Nov-08 20:29N 70°14' E 019°30'0 0.0
2017-Nov-08 19:59N 70°14' E 019°30'0 0.0
2017-Nov-08 19:29N 70°14' E 019°30'0 0.0
2017-Nov-08 18:59N 70°14' E 019°30'0 0.0
2017-Nov-08 18:29N 70°14' E 019°30'0 0.0
2017-Nov-08 17:59N 70°14' E 019°30'0 0.0
2017-Nov-08 17:29N 70°14' E 019°30'0 0.0
2017-Nov-08 16:59N 70°15' E 019°30'0 0.0
2017-Nov-08 16:29N 70°14' E 019°30'0 0.0
2017-Nov-08 15:59N 70°14' E 019°30'0 0.0
2017-Nov-08 15:27N 70°14' E 019°30'0 0.0
2017-Nov-08 15:00N 70°14' E 019°30'0 0.0
2017-Nov-08 14:30N 70°14' E 019°30'0 0.0
2017-Nov-08 14:00N 70°15' E 019°30'0 0.0
2017-Nov-08 13:30N 70°14' E 019°30'0 0.0
2017-Nov-08 13:00N 70°14' E 019°30'0 0.0
2017-Nov-08 12:30N 70°14' E 019°30'0 0.0
2017-Nov-08 12:00N 70°14' E 019°30'0 0.0
2017-Nov-08 11:30N 70°14' E 019°30'0 0.0
2017-Nov-08 11:00N 70°14' E 019°30'0 0.0
2017-Nov-08 10:29N 70°14' E 019°30'0 0.0
2017-Nov-08 09:59N 70°14' E 019°30'0 0.0
2017-Nov-08 09:29N 70°14' E 019°30'0 0.0
2017-Nov-08 08:59N 70°14' E 019°30'0 0.0
2017-Nov-08 08:29N 70°15' E 019°30'0 0.0
2017-Nov-08 07:59N 70°15' E 019°30'0 0.0
2017-Nov-08 07:29N 70°14' E 019°30'0 0.0
2017-Nov-08 06:59N 70°15' E 019°30'0 0.0
2017-Nov-08 06:29N 70°14' E 019°30'0 0.0
2017-Nov-08 05:59N 70°14' E 019°30'0 0.0
2017-Nov-08 05:29N 70°15' E 019°30'0 0.0
2017-Nov-08 04:59N 70°15' E 019°30'0 0.0
2017-Nov-08 04:29N 70°15' E 019°30'0 0.0
2017-Nov-08 03:59N 70°14' E 019°30'0 0.0
2017-Nov-08 03:29N 70°15' E 019°30'0 0.0
2017-Nov-08 02:59N 70°15' E 019°30'0 0.0
2017-Nov-08 02:29N 70°15' E 019°30'0 0.0
2017-Nov-08 01:59N 70°14' E 019°30'0 0.0
2017-Nov-08 01:29N 70°14' E 019°30'0 0.0
2017-Nov-08 00:59N 70°14' E 019°30'0 0.0
2017-Nov-08 00:29N 70°14' E 019°30'0 0.0
2017-Nov-07 23:59N 70°15' E 019°30'0 0.0
2017-Nov-07 23:29N 70°15' E 019°30'0 0.0
2017-Nov-07 22:59N 70°15' E 019°30'0 0.0
2017-Nov-07 22:29N 70°15' E 019°30'0 0.0
2017-Nov-07 21:59N 70°14' E 019°30'0 0.0
2017-Nov-07 21:29N 70°14' E 019°30'0 0.0
2017-Nov-07 20:59N 70°14' E 019°30'0 0.0
2017-Nov-07 20:29N 70°14' E 019°30'0 0.0
2017-Nov-07 19:59N 70°14' E 019°30'0 0.0
2017-Nov-07 19:29N 70°14' E 019°30'0 0.0
2017-Nov-07 18:59N 70°14' E 019°30'0 0.0
2017-Nov-07 18:29N 70°14' E 019°30'0 0.0
2017-Nov-07 17:59N 70°14' E 019°30'0 0.0
2017-Nov-07 17:29N 70°14' E 019°30'0 0.0
2017-Nov-07 16:59N 70°14' E 019°30'0 0.0
2017-Nov-07 16:29N 70°14' E 019°30'0 0.0
2017-Nov-07 15:59N 70°14' E 019°30'0 0.0
2017-Nov-07 15:29N 70°14' E 019°30'0 0.0
2017-Nov-07 14:59N 70°14' E 019°30'0 0.0
2017-Nov-07 14:29N 70°14' E 019°30'0 0.0
2017-Nov-07 13:59N 70°14' E 019°30'0 0.0
2017-Nov-07 13:29N 70°14' E 019°30'0 0.0
2017-Nov-07 12:59N 70°14' E 019°30'0 0.0
2017-Nov-07 12:29N 70°14' E 019°30'0 0.0
2017-Nov-07 11:59N 70°14' E 019°30'0 0.0
2017-Nov-07 11:29N 70°14' E 019°30'0 0.0
2017-Nov-07 10:59N 70°14' E 019°30'0 0.0
2017-Nov-07 10:29N 70°14' E 019°30'0 0.0
2017-Nov-07 09:59N 70°14' E 019°30'0 0.0
2017-Nov-07 09:29N 70°14' E 019°30'0 0.0
2017-Nov-07 08:59N 70°14' E 019°30'0 0.0
2017-Nov-07 08:29N 70°14' E 019°30'0 0.0
2017-Nov-07 07:59N 70°14' E 019°30'0 0.0
2017-Nov-07 07:29N 70°14' E 019°30'0 0.0
2017-Nov-07 06:59N 70°14' E 019°30'0 0.0
2017-Nov-07 06:29N 70°14' E 019°30'0 0.0
2017-Nov-07 05:59N 70°14' E 019°30'0 0.0
2017-Nov-07 05:29N 70°14' E 019°30'0 0.0
2017-Nov-07 04:59N 70°14' E 019°30'0 0.0
2017-Nov-07 04:29N 70°14' E 019°30'0 0.0
2017-Nov-07 03:59N 70°14' E 019°30'0 0.0
2017-Nov-07 03:29N 70°14' E 019°30'0 0.0
2017-Nov-07 02:59N 70°14' E 019°30'0 0.0
2017-Nov-07 02:29N 70°14' E 019°30'0 0.0
2017-Nov-07 01:59N 70°14' E 019°30'0 0.0
2017-Nov-07 01:29N 70°14' E 019°30'0 0.0
2017-Nov-07 00:59N 70°14' E 019°30'0 0.0
2017-Nov-07 00:29N 70°14' E 019°30'0 0.0
2017-Nov-06 23:59N 70°14' E 019°30'0 0.0
2017-Nov-06 23:29N 70°14' E 019°30'0 0.0
2017-Nov-06 22:59N 70°14' E 019°30'0 0.0
2017-Nov-06 22:29N 70°14' E 019°30'0 0.0
2017-Nov-06 21:59N 70°14' E 019°30'0 0.0
2017-Nov-06 21:29N 70°14' E 019°30'0 0.0
2017-Nov-06 20:59N 70°14' E 019°30'0 0.0
2017-Nov-06 20:29N 70°14' E 019°30'  

Dump ship's entire track history